createdAt,value
2019-02-22T00:02:27.584Z,31.43
2019-02-22T00:04:57.050Z,28.87
2019-02-22T00:07:26.530Z,22.43
2019-02-22T00:09:56.004Z,34.73
2019-02-22T00:12:25.522Z,25.97
2019-02-22T00:14:54.980Z,21.33
2019-02-22T00:17:24.472Z,21.63
2019-02-22T00:19:53.953Z,22.53
2019-02-22T00:22:23.405Z,25.20
2019-02-22T00:24:52.883Z,20.57
2019-02-22T00:27:22.452Z,23.37
2019-02-22T00:29:51.964Z,21.70
2019-02-22T00:32:21.484Z,21.50
2019-02-22T00:34:51.041Z,22.10
2019-02-22T00:37:20.545Z,21.37
2019-02-22T00:39:50.020Z,21.43
2019-02-22T00:42:19.525Z,21.80
2019-02-22T00:44:48.993Z,21.70
2019-02-22T00:47:18.495Z,22.37
2019-02-22T00:49:47.948Z,23.90
2019-02-22T00:52:17.415Z,22.17
2019-02-22T00:54:46.921Z,22.23
2019-02-22T00:57:16.404Z,21.60
2019-02-22T00:59:45.892Z,22.83
2019-02-22T01:02:15.378Z,22.77
2019-02-22T01:04:44.905Z,23.97
2019-02-22T01:07:14.360Z,22.30
2019-02-22T01:09:43.870Z,23.07
2019-02-22T01:12:13.312Z,23.67
2019-02-22T01:14:42.811Z,23.20
2019-02-22T01:17:12.269Z,25.00
2019-02-22T01:19:41.796Z,23.53
2019-02-22T01:22:11.260Z,24.17
2019-02-22T01:24:40.733Z,23.47
2019-02-22T01:27:10.208Z,25.60
2019-02-22T01:29:39.731Z,23.73
2019-02-22T01:32:09.196Z,24.57
2019-02-22T01:34:38.890Z,25.73
2019-02-22T01:37:08.325Z,25.63
2019-02-22T01:39:37.842Z,24.97
2019-02-22T01:42:07.293Z,25.67
2019-02-22T01:44:36.793Z,25.33
2019-02-22T01:47:06.246Z,27.00
2019-02-22T01:49:35.751Z,26.53
2019-02-22T01:52:05.201Z,26.87
2019-02-22T01:54:34.685Z,27.93
2019-02-22T01:57:04.245Z,25.70
2019-02-22T01:59:33.888Z,25.70
2019-02-22T02:02:03.341Z,27.07
2019-02-22T02:04:32.883Z,26.47
2019-02-22T02:07:02.359Z,26.40
2019-02-22T02:09:31.873Z,26.73
2019-02-22T02:12:02.129Z,28.30
2019-02-22T02:14:31.691Z,27.60
2019-02-22T02:17:01.196Z,27.80
2019-02-22T02:19:30.659Z,28.03
2019-02-22T02:22:00.240Z,27.70
2019-02-22T02:24:29.706Z,27.37
2019-02-22T02:26:59.144Z,29.03
2019-02-22T02:29:28.646Z,29.20
2019-02-22T02:31:58.110Z,30.07
2019-02-22T02:34:27.621Z,28.13
2019-02-22T02:36:57.069Z,28.57
2019-02-22T02:39:26.577Z,28.43
2019-02-22T02:41:56.076Z,30.43
2019-02-22T02:44:25.581Z,29.43
2019-02-22T02:46:55.086Z,31.13
2019-02-22T02:49:24.581Z,30.63
2019-02-22T02:51:54.063Z,30.43
2019-02-22T02:54:23.536Z,29.80
2019-02-22T02:56:53.027Z,31.00
2019-02-22T02:59:22.549Z,32.93
2019-02-22T03:01:52.029Z,31.70
2019-02-22T03:04:21.620Z,30.40
2019-02-22T03:07:15.822Z,33.07
2019-02-22T03:09:45.438Z,33.17
2019-02-22T03:12:14.893Z,34.37
2019-02-22T03:14:44.391Z,34.60
2019-02-22T03:17:13.862Z,38.10
2019-02-22T03:19:43.357Z,36.10
2019-02-22T03:22:12.838Z,37.93
2019-02-22T03:24:42.328Z,37.73
2019-02-22T03:27:11.797Z,37.70
2019-02-22T03:29:41.285Z,37.33
2019-02-22T03:32:10.753Z,36.80
2019-02-22T03:34:40.239Z,34.90
2019-02-22T03:37:09.698Z,36.40
2019-02-22T03:39:39.201Z,37.27
2019-02-22T03:42:08.685Z,37.50
2019-02-22T03:44:38.138Z,36.67
2019-02-22T03:47:07.634Z,35.47
2019-02-22T03:49:37.093Z,35.30
2019-02-22T03:52:23.956Z,36.23
2019-02-22T03:54:53.415Z,34.73
2019-02-22T03:57:22.957Z,35.07
2019-02-22T03:59:52.414Z,34.73
2019-02-22T04:02:21.911Z,34.27
2019-02-22T04:04:51.420Z,34.17
2019-02-22T04:07:20.881Z,32.10
2019-02-22T04:09:50.386Z,32.70
2019-02-22T04:12:19.869Z,32.70
2019-02-22T04:14:49.421Z,32.07
2019-02-22T04:17:18.837Z,33.47
2019-02-22T04:19:48.353Z,32.83
2019-02-22T04:22:17.840Z,32.80
2019-02-22T04:24:47.360Z,32.33
2019-02-22T04:27:16.977Z,32.07
2019-02-22T04:29:46.516Z,31.93
2019-02-22T04:32:16.024Z,34.63
2019-02-22T04:34:45.505Z,31.57
2019-02-22T04:37:14.987Z,31.00
2019-02-22T04:39:44.484Z,32.30
2019-02-22T04:42:13.968Z,31.47
2019-02-22T04:44:43.460Z,32.40
2019-02-22T04:47:12.929Z,38.23
2019-02-22T04:49:42.428Z,34.50
2019-02-22T04:52:11.885Z,32.53
2019-02-22T04:54:41.383Z,30.37
2019-02-22T04:57:10.886Z,31.53
2019-02-22T04:59:40.391Z,31.20
2019-02-22T05:02:09.854Z,31.63
2019-02-22T05:04:39.374Z,31.13
2019-02-22T05:07:08.845Z,31.77
2019-02-22T05:09:38.347Z,32.77
2019-02-22T05:12:10.950Z,31.43
2019-02-22T05:14:38.995Z,33.23
2019-02-22T05:17:08.491Z,32.07
2019-02-22T05:19:38.289Z,30.90
2019-02-22T05:22:07.726Z,32.97
2019-02-22T05:24:37.224Z,31.80
2019-02-22T05:27:06.698Z,33.03
2019-02-22T05:29:36.191Z,31.23
2019-02-22T05:32:05.659Z,31.57
2019-02-22T05:34:35.143Z,32.30
2019-02-22T05:37:04.602Z,31.03
2019-02-22T05:39:34.107Z,30.90
2019-02-22T05:42:03.624Z,30.57
2019-02-22T05:44:33.109Z,31.30
2019-02-22T05:47:02.616Z,31.27
2019-02-22T05:49:32.072Z,31.40
2019-02-22T05:52:01.556Z,31.70
2019-02-22T05:54:31.553Z,31.07
2019-02-22T05:57:01.061Z,32.37
2019-02-22T05:59:30.621Z,30.10
2019-02-22T06:02:00.101Z,29.97
2019-02-22T06:04:29.628Z,30.47
2019-02-22T06:06:59.176Z,31.17
2019-02-22T06:09:28.672Z,31.63
2019-02-22T06:11:58.154Z,29.67
2019-02-22T06:14:27.648Z,30.90
2019-02-22T06:16:57.186Z,28.50
2019-02-22T06:19:26.645Z,28.10
2019-02-22T06:21:56.213Z,33.07
2019-02-22T06:24:25.606Z,33.70
2019-02-22T06:26:55.185Z,29.87
2019-02-22T06:29:24.621Z,28.07
2019-02-22T06:31:54.118Z,30.97
2019-02-22T06:34:23.594Z,28.57
2019-02-22T06:37:01.098Z,27.50
2019-02-22T06:39:24.206Z,27.43
2019-02-22T06:41:53.680Z,28.30
2019-02-22T06:44:23.241Z,26.50
2019-02-22T06:46:52.699Z,27.00
2019-02-22T06:49:22.158Z,26.83
2019-02-22T06:51:51.976Z,25.10
2019-02-22T06:54:24.566Z,27.37
2019-02-22T06:56:54.276Z,25.93
2019-02-22T06:59:23.760Z,27.03
2019-02-22T07:01:53.265Z,25.03
2019-02-22T07:04:22.750Z,25.83
2019-02-22T07:06:52.249Z,26.07
2019-02-22T07:09:22.075Z,29.97
2019-02-22T07:11:55.450Z,26.03
2019-02-22T07:14:24.922Z,26.00
2019-02-22T07:16:54.478Z,25.07
2019-02-22T07:19:23.952Z,26.63
2019-02-22T07:21:53.496Z,24.23
2019-02-22T07:24:22.949Z,24.57
2019-02-22T07:26:52.457Z,23.80
2019-02-22T07:29:22.332Z,24.90
2019-02-22T07:31:51.816Z,26.37
2019-02-22T07:34:21.310Z,25.80
2019-02-22T07:36:50.783Z,23.80
2019-02-22T07:39:27.935Z,25.17
2019-02-22T07:41:51.411Z,24.23
2019-02-22T07:44:20.862Z,26.00
2019-02-22T07:46:50.413Z,22.73
2019-02-22T07:49:27.242Z,23.17
2019-02-22T07:51:56.759Z,26.07
2019-02-22T07:54:26.229Z,24.73
2019-02-22T07:56:55.731Z,21.40
2019-02-22T07:59:25.212Z,20.83
2019-02-22T08:01:54.774Z,21.53
2019-02-22T08:04:24.239Z,22.47
2019-02-22T08:06:53.747Z,21.43
2019-02-22T08:09:23.568Z,20.67
2019-02-22T08:11:53.048Z,21.17
2019-02-22T08:14:22.535Z,19.83
2019-02-22T08:16:52.056Z,19.10
2019-02-22T08:19:21.516Z,19.90
2019-02-22T08:21:51.741Z,20.17
2019-02-22T08:24:21.344Z,18.47
2019-02-22T08:26:51.041Z,19.50
2019-02-22T08:29:21.551Z,19.00
2019-02-22T08:31:52.038Z,19.10
2019-02-22T08:34:21.655Z,19.87
2019-02-22T08:36:51.695Z,18.27
2019-02-22T08:39:21.254Z,17.30
2019-02-22T08:41:50.752Z,17.40
2019-02-22T08:44:20.274Z,18.00
2019-02-22T08:46:49.837Z,18.60
2019-02-22T08:49:19.300Z,17.43
2019-02-22T08:51:51.720Z,17.40
2019-02-22T08:54:21.233Z,16.53
2019-02-22T08:56:50.707Z,17.57
2019-02-22T08:59:20.268Z,17.23
2019-02-22T09:01:49.824Z,16.37
2019-02-22T09:04:19.308Z,16.10
2019-02-22T09:06:48.783Z,17.40
2019-02-22T09:09:18.307Z,16.60
2019-02-22T09:11:47.756Z,15.40
2019-02-22T09:14:17.228Z,13.47
2019-02-22T09:16:47.055Z,14.30
2019-02-22T09:19:16.530Z,13.47
2019-02-22T09:21:46.032Z,13.90
2019-02-22T09:24:15.513Z,13.53
2019-02-22T09:26:45.033Z,13.80
2019-02-22T09:29:14.500Z,11.37
2019-02-22T09:31:43.971Z,11.27
2019-02-22T09:34:13.477Z,12.17
2019-02-22T09:36:42.956Z,13.10
2019-02-22T09:39:12.440Z,11.37
2019-02-22T09:41:41.915Z,10.80
2019-02-22T09:44:11.433Z,11.10
2019-02-22T09:46:40.891Z,10.03
2019-02-22T09:49:10.377Z,9.27
2019-02-22T09:51:41.304Z,10.13
2019-02-22T09:54:10.878Z,10.20
2019-02-22T09:56:40.443Z,11.07
2019-02-22T09:59:09.857Z,9.40
2019-02-22T10:01:39.373Z,9.53
2019-02-22T10:04:08.897Z,8.93
2019-02-22T10:06:38.383Z,9.07
2019-02-22T10:09:08.058Z,9.53
2019-02-22T10:11:40.532Z,9.53
2019-02-22T10:14:10.076Z,8.03
2019-02-22T10:16:39.552Z,8.13
2019-02-22T10:19:09.089Z,7.83
2019-02-22T10:21:38.600Z,8.60
2019-02-22T10:24:08.079Z,7.23
2019-02-22T10:26:37.575Z,6.30
2019-02-22T10:29:07.057Z,8.80
2019-02-22T10:31:36.561Z,8.33
2019-02-22T10:34:06.056Z,8.47
2019-02-22T10:36:44.766Z,8.43
2019-02-22T10:39:07.038Z,7.07
2019-02-22T10:41:36.514Z,6.80
2019-02-22T10:44:14.917Z,7.17
2019-02-22T10:46:37.148Z,8.07
2019-02-22T10:49:06.705Z,9.33
2019-02-22T10:51:36.174Z,10.00
2019-02-22T10:54:05.677Z,7.07
2019-02-22T10:56:35.135Z,6.73
2019-02-22T10:59:04.612Z,7.07
2019-02-22T11:01:34.111Z,7.80
2019-02-22T11:04:03.593Z,7.13
2019-02-22T11:06:33.093Z,7.10
2019-02-22T11:09:02.563Z,6.37
2019-02-22T11:11:32.076Z,5.53
2019-02-22T11:14:01.577Z,6.53
2019-02-22T11:16:31.041Z,5.63
2019-02-22T11:19:00.542Z,6.67
2019-02-22T11:21:30.003Z,6.50
2019-02-22T11:23:59.533Z,6.60
2019-02-22T11:26:28.986Z,6.43
2019-02-22T11:28:58.461Z,5.70
2019-02-22T11:31:27.964Z,6.40
2019-02-22T11:33:57.421Z,6.23
2019-02-22T11:36:26.917Z,5.83
2019-02-22T11:38:56.381Z,6.20
2019-02-22T11:41:25.905Z,5.23
2019-02-22T11:43:55.380Z,5.27
2019-02-22T11:46:24.829Z,5.27
2019-02-22T11:48:54.329Z,5.83
2019-02-22T11:51:23.800Z,5.20
2019-02-22T11:53:53.629Z,5.47
2019-02-22T11:56:23.069Z,5.63
2019-02-22T11:58:53.429Z,5.00
2019-02-22T12:01:22.897Z,5.37
2019-02-22T12:03:52.552Z,5.20
2019-02-22T12:06:22.060Z,6.00
2019-02-22T12:08:51.513Z,5.67
2019-02-22T12:11:20.993Z,5.47
2019-02-22T12:13:50.456Z,5.30
2019-02-22T12:16:19.976Z,5.23
2019-02-22T12:18:49.480Z,4.53
2019-02-22T12:21:18.952Z,4.93
2019-02-22T12:23:49.455Z,4.50
2019-02-22T12:26:19.004Z,5.13
2019-02-22T12:31:23.740Z,4.83
2019-02-22T12:33:53.233Z,4.70
2019-02-22T12:36:22.704Z,4.97
2019-02-22T12:38:52.167Z,5.37
2019-02-22T12:41:21.649Z,4.50
2019-02-22T12:43:51.115Z,4.83
2019-02-22T12:46:20.619Z,4.60
2019-02-22T12:48:50.088Z,3.87
2019-02-22T12:51:19.713Z,4.57
2019-02-22T12:53:49.193Z,4.97
2019-02-22T12:56:18.656Z,4.27
2019-02-22T12:58:48.137Z,5.17
2019-02-22T13:01:17.592Z,4.30
2019-02-22T13:03:47.116Z,3.87
2019-02-22T13:06:16.625Z,3.87
2019-02-22T13:08:46.213Z,4.30
2019-02-22T13:11:15.677Z,4.03
2019-02-22T13:13:45.140Z,4.47
2019-02-22T13:16:14.643Z,3.63
2019-02-22T13:18:44.136Z,4.07
2019-02-22T13:21:13.646Z,4.50
2019-02-22T13:23:43.119Z,3.87
2019-02-22T13:26:12.622Z,3.50
2019-02-22T13:28:42.069Z,3.97
2019-02-22T13:31:11.541Z,4.23
2019-02-22T13:33:41.040Z,3.90
2019-02-22T13:36:10.496Z,4.60
2019-02-22T13:38:39.967Z,4.17
2019-02-22T13:41:09.474Z,4.20
2019-02-22T13:43:38.938Z,3.73
2019-02-22T13:46:08.471Z,4.53
2019-02-22T13:48:37.936Z,3.20
2019-02-22T13:51:08.148Z,3.27
2019-02-22T13:53:37.657Z,3.83
2019-02-22T13:56:07.169Z,3.77
2019-02-22T13:58:36.648Z,3.93
2019-02-22T14:01:06.100Z,4.77
2019-02-22T14:03:35.600Z,3.27
2019-02-22T14:06:06.449Z,3.83
2019-02-22T14:08:35.941Z,2.97
2019-02-22T14:11:05.418Z,4.20
2019-02-22T14:13:34.923Z,3.63
2019-02-22T14:16:04.375Z,4.07
2019-02-22T14:18:33.840Z,3.83
2019-02-22T14:21:03.341Z,3.90
2019-02-22T14:23:32.809Z,5.27
2019-02-22T14:26:02.300Z,4.07
2019-02-22T14:28:31.875Z,4.33
2019-02-22T14:31:01.713Z,3.87
2019-02-22T14:33:31.174Z,3.47
2019-02-22T14:36:00.660Z,3.87
2019-02-22T14:38:30.250Z,5.73
2019-02-22T14:40:59.731Z,4.43
2019-02-22T14:43:29.226Z,3.40
2019-02-22T14:45:58.685Z,3.60
2019-02-22T14:48:28.189Z,3.30
2019-02-22T14:50:57.648Z,3.10
2019-02-22T14:53:27.350Z,3.60
2019-02-22T14:55:56.811Z,3.47
2019-02-22T14:58:26.283Z,3.77
2019-02-22T15:00:55.876Z,3.83
2019-02-22T15:03:25.353Z,3.40
2019-02-22T15:05:54.933Z,3.90
2019-02-22T15:08:24.489Z,3.47
2019-02-22T15:10:53.997Z,3.43
2019-02-22T15:13:23.478Z,3.73
2019-02-22T15:16:11.905Z,3.23
2019-02-22T15:18:41.402Z,3.40
2019-02-22T15:21:10.876Z,3.40
2019-02-22T15:23:40.391Z,3.77
2019-02-22T15:26:09.865Z,3.30
2019-02-22T15:28:39.377Z,3.97
2019-02-22T15:31:09.079Z,3.33
2019-02-22T15:33:38.565Z,4.07
2019-02-22T15:36:08.787Z,5.80
2019-02-22T15:38:38.252Z,5.10
2019-02-22T15:41:09.968Z,4.13
2019-02-22T15:43:38.882Z,3.57
2019-02-22T15:46:12.214Z,3.97
2019-02-22T15:48:39.508Z,3.53
2019-02-22T15:51:08.981Z,3.70
2019-02-22T15:53:38.468Z,3.70
2019-02-22T15:56:07.943Z,3.83
2019-02-22T15:58:37.453Z,3.40
2019-02-22T16:01:06.924Z,3.90
2019-02-22T16:03:53.841Z,3.97
2019-02-22T16:06:23.381Z,4.23
2019-02-22T16:08:52.844Z,4.10
2019-02-22T16:11:25.641Z,3.70
2019-02-22T16:13:55.108Z,3.83
2019-02-22T16:16:24.623Z,11.53
2019-02-22T16:18:54.063Z,4.40
2019-02-22T16:21:23.575Z,3.60
2019-02-22T16:23:53.034Z,4.23
2019-02-22T16:26:26.531Z,4.10
2019-02-22T16:28:56.001Z,4.23
2019-02-22T16:31:25.488Z,4.33
2019-02-22T16:33:54.973Z,3.60
2019-02-22T16:36:24.430Z,4.03
2019-02-22T16:38:53.964Z,3.20
2019-02-22T16:41:23.414Z,2.77
2019-02-22T16:43:52.983Z,2.57
2019-02-22T16:46:22.445Z,2.70
2019-02-22T16:48:51.949Z,2.80
2019-02-22T16:51:21.424Z,3.97
2019-02-22T16:53:50.890Z,3.30
2019-02-22T16:56:20.365Z,3.30
2019-02-22T16:58:49.813Z,2.90
2019-02-22T17:01:19.333Z,3.10
2019-02-22T17:03:48.804Z,2.60
2019-02-22T17:06:18.540Z,3.10
2019-02-22T17:08:48.016Z,3.27
2019-02-22T17:11:17.574Z,3.40
2019-02-22T17:13:47.053Z,3.57
2019-02-22T17:16:16.678Z,3.50
2019-02-22T17:18:46.207Z,3.60
2019-02-22T17:21:15.663Z,3.30
2019-02-22T17:23:45.264Z,3.53
2019-02-22T17:26:16.414Z,3.90
2019-02-22T17:28:45.880Z,3.80
2019-02-22T17:31:15.400Z,3.83
2019-02-22T17:33:44.847Z,4.13
2019-02-22T17:36:14.332Z,4.13
2019-02-22T17:38:43.800Z,4.70
2019-02-22T17:41:13.289Z,4.40
2019-02-22T17:43:42.732Z,4.37
2019-02-22T17:46:12.195Z,3.83
2019-02-22T17:48:41.757Z,3.93
2019-02-22T17:51:11.220Z,3.73
2019-02-22T17:53:40.701Z,3.40
2019-02-22T17:56:10.171Z,3.67
2019-02-22T17:58:40.264Z,3.00
2019-02-22T18:01:09.791Z,3.80
2019-02-22T18:03:39.244Z,4.00
2019-02-22T18:06:08.755Z,3.67
2019-02-22T18:08:38.289Z,3.60
2019-02-22T18:11:07.792Z,3.73
2019-02-22T18:13:37.244Z,4.07
2019-02-22T18:16:06.733Z,3.87
2019-02-22T18:18:36.292Z,3.33
2019-02-22T18:21:05.789Z,3.33
2019-02-22T18:23:35.293Z,3.93
2019-02-22T18:26:04.757Z,4.37
2019-02-22T18:28:34.229Z,4.43
2019-02-22T18:31:03.696Z,4.80
2019-02-22T18:33:33.185Z,5.03
2019-02-22T18:36:02.640Z,4.17
2019-02-22T18:38:32.142Z,4.50
2019-02-22T18:41:01.626Z,3.90
2019-02-22T18:43:31.121Z,4.37
2019-02-22T18:46:00.566Z,5.03
2019-02-22T18:48:30.028Z,5.20
2019-02-22T18:50:59.523Z,5.50
2019-02-22T18:53:28.981Z,5.37
2019-02-22T18:55:58.468Z,5.57
2019-02-22T18:58:27.945Z,5.03
2019-02-22T19:00:57.397Z,6.03
2019-02-22T19:03:26.891Z,5.97
2019-02-22T19:05:56.345Z,6.20
2019-02-22T19:08:32.398Z,6.30
2019-02-22T19:10:57.233Z,6.50
2019-02-22T19:13:26.727Z,6.17
2019-02-22T19:15:56.182Z,6.20
2019-02-22T19:18:25.661Z,6.37
2019-02-22T19:20:55.176Z,5.73
2019-02-22T19:23:24.628Z,7.40
2019-02-22T19:25:54.107Z,6.37
2019-02-22T19:28:23.572Z,7.03
2019-02-22T19:30:53.082Z,5.90
2019-02-22T19:33:22.561Z,6.37
2019-02-22T19:35:52.076Z,6.60
2019-02-22T19:38:21.551Z,6.07
2019-02-22T19:40:50.994Z,6.80
2019-02-22T19:43:20.467Z,7.27
2019-02-22T19:45:49.919Z,7.37
2019-02-22T19:48:19.422Z,7.17
2019-02-22T19:50:48.877Z,7.87
2019-02-22T19:53:18.377Z,7.37
2019-02-22T19:55:47.840Z,6.43
2019-02-22T19:58:17.309Z,7.33
2019-02-22T20:00:46.805Z,7.47
2019-02-22T20:03:16.277Z,6.53
2019-02-22T20:05:45.764Z,7.70
2019-02-22T20:08:15.532Z,6.87
2019-02-22T20:10:45.072Z,6.87
2019-02-22T20:13:14.541Z,7.97
2019-02-22T20:15:43.992Z,6.70
2019-02-22T20:18:13.478Z,13.00
2019-02-22T20:20:42.936Z,7.37
2019-02-22T20:23:12.411Z,7.90
2019-02-22T20:25:41.876Z,9.83
2019-02-22T20:28:11.380Z,7.57
2019-02-22T20:30:40.851Z,7.43
2019-02-22T20:33:10.312Z,7.17
2019-02-22T20:35:39.791Z,7.40
2019-02-22T20:38:09.241Z,7.33
2019-02-22T20:40:38.722Z,7.23
2019-02-22T20:43:08.173Z,7.13
2019-02-22T20:45:37.736Z,6.73
2019-02-22T20:48:07.244Z,6.83
2019-02-22T20:50:36.715Z,6.40
2019-02-22T20:53:06.403Z,7.20
2019-02-22T20:55:35.883Z,7.33
2019-02-22T20:58:05.390Z,7.07
2019-02-22T21:00:34.828Z,7.07
2019-02-22T21:03:04.323Z,6.03
2019-02-22T21:05:33.779Z,6.57
2019-02-22T21:08:03.238Z,5.67
2019-02-22T21:10:32.791Z,7.10
2019-02-22T21:13:02.267Z,7.07
2019-02-22T21:15:31.755Z,7.03
2019-02-22T21:18:01.220Z,6.57
2019-02-22T21:20:30.824Z,6.43
2019-02-22T21:23:00.304Z,6.97
2019-02-22T21:25:29.772Z,6.50
2019-02-22T21:27:59.515Z,7.00
2019-02-22T21:30:28.969Z,6.77
2019-02-22T21:32:58.458Z,7.47
2019-02-22T21:35:27.972Z,7.47
2019-02-22T21:37:59.351Z,7.13
2019-02-22T21:40:28.825Z,7.27
2019-02-22T21:42:58.302Z,7.40
2019-02-22T21:45:27.785Z,7.40
2019-02-22T21:47:57.249Z,7.37
2019-02-22T21:50:26.734Z,7.27
2019-02-22T21:52:56.208Z,7.63
2019-02-22T21:55:25.708Z,7.87
2019-02-22T21:57:55.164Z,7.80
2019-02-22T22:00:24.735Z,7.87
2019-02-22T22:02:54.248Z,8.93
2019-02-22T22:05:23.718Z,9.10
2019-02-22T22:07:53.209Z,9.10
2019-02-22T22:10:22.705Z,9.17
2019-02-22T22:12:52.242Z,8.30
2019-02-22T22:15:21.700Z,8.97
2019-02-22T22:17:51.157Z,8.10
2019-02-22T22:20:20.643Z,8.93
2019-02-22T22:22:50.124Z,9.30
2019-02-22T22:25:19.628Z,8.57
2019-02-22T22:27:49.149Z,9.87
2019-02-22T22:30:18.612Z,8.47
2019-02-22T22:32:48.075Z,9.33
2019-02-22T22:35:17.591Z,9.70
2019-02-22T22:37:47.055Z,9.20
2019-02-22T22:40:16.567Z,9.50
2019-02-22T22:42:46.067Z,9.60
2019-02-22T22:45:15.697Z,9.47
2019-02-22T22:47:45.115Z,9.60
2019-02-22T22:50:14.590Z,9.53
2019-02-22T22:52:44.068Z,9.37
2019-02-22T22:55:13.532Z,9.70
2019-02-22T22:57:43.029Z,8.93
2019-02-22T23:01:08.209Z,10.77
2019-02-22T23:03:38.170Z,9.60
2019-02-22T23:06:08.724Z,9.80
2019-02-22T23:08:39.954Z,10.90
2019-02-22T23:11:09.464Z,8.73
2019-02-22T23:13:38.924Z,9.43
2019-02-22T23:16:08.447Z,9.67
2019-02-22T23:18:37.900Z,10.20
2019-02-22T23:21:07.372Z,11.00
2019-02-22T23:23:36.864Z,10.37
2019-02-22T23:26:06.368Z,11.90
2019-02-22T23:28:35.880Z,11.13
2019-02-22T23:31:05.352Z,11.90
2019-02-22T23:33:34.815Z,11.23
2019-02-22T23:36:04.342Z,10.43
2019-02-22T23:38:33.803Z,11.43
2019-02-22T23:41:03.349Z,10.63
2019-02-22T23:43:32.840Z,12.00
2019-02-22T23:46:02.303Z,11.10
2019-02-22T23:48:31.751Z,10.67
2019-02-22T23:51:01.461Z,11.03
2019-02-22T23:53:31.032Z,9.87
2019-02-22T23:56:00.488Z,10.93
2019-02-22T23:58:29.944Z,10.33
